Time;durP1;ratioP1;P1;durP2;ratioP2;P2;SDS_P1;SDS_P2;PMS_P1;PMS_P2;Temp;Humidity;BMP_temperature;BMP_pressure;BME280_temperature;BME280_humidity;BME280_pressure;Samples;Min_cycle;Max_cycle;Signal;HPM_P1;HPM_P2
2021/08/22 00:00:40;;;;;;;7.13;4.97;;;;;;;;;;5066051;28;20028;-39
2021/08/22 00:03:05;;;;;;;8.20;4.75;;;;;;;;;;5066020;28;20042;-41
2021/08/22 00:05:30;;;;;;;7.05;4.93;;;;;;;;;;5065640;28;20025;-40
2021/08/22 00:07:56;;;;;;;5.85;4.22;;;;;;;;;;5066081;28;20047;-39
2021/08/22 00:10:21;;;;;;;6.72;4.50;;;;;;;;;;5065206;28;20125;-41
2021/08/22 00:12:47;;;;;;;9.35;4.60;;;;;;;;;;5065826;28;20031;-39
2021/08/22 00:15:13;;;;;;;6.32;4.40;;;;;;;;;;5067265;28;20082;-40
2021/08/22 00:17:38;;;;;;;6.18;4.05;;;;;;;;;;5078260;28;20020;-39
2021/08/22 00:20:05;;;;;;;5.50;2.80;;;;;;;;;;5064129;28;20108;-39
2021/08/22 00:22:30;;;;;;;7.38;2.80;;;;;;;;;;5055947;28;20475;-42
2021/08/22 00:24:55;;;;;;;4.20;2.28;;;;;;;;;;5078588;28;20016;-40
2021/08/22 00:27:21;;;;;;;4.68;2.00;;;;;;;;;;5058534;28;20085;-39
2021/08/22 00:29:46;;;;;;;4.57;2.00;;;;;;;;;;5062248;28;20423;-40
2021/08/22 00:32:11;;;;;;;3.83;1.35;;;;;;;;;;5064447;28;20115;-41
2021/08/22 00:34:37;;;;;;;4.57;1.50;;;;;;;;;;5074778;28;20096;-39
2021/08/22 00:37:02;;;;;;;3.28;1.45;;;;;;;;;;5064053;28;20041;-40
2021/08/22 00:39:28;;;;;;;3.40;1.70;;;;;;;;;;5050806;28;20024;-41
2021/08/22 00:41:53;;;;;;;3.15;1.58;;;;;;;;;;5079760;28;20024;-39
2021/08/22 00:44:20;;;;;;;4.13;1.67;;;;;;;;;;5060882;28;20403;-41
2021/08/22 00:46:50;;;;;;;3.15;1.50;;;;;;;;;;5050250;28;20071;-40
2021/08/22 00:49:16;;;;;;;4.85;1.67;;;;;;;;;;5065955;28;20459;-39
2021/08/22 00:51:43;;;;;;;4.43;1.92;;;;;;;;;;5065324;28;20143;-38
2021/08/22 00:54:09;;;;;;;6.13;1.52;;;;;;;;;;5049409;28;20052;-39
2021/08/22 00:56:34;;;;;;;4.28;2.10;;;;;;;;;;5053265;28;20027;-38
2021/08/22 00:59:10;;;;;;;3.30;1.67;;;;;;;;;;5059298;28;20036;-43
2021/08/22 01:01:37;;;;;;;3.55;1.75;;;;;;;;;;5061593;28;20023;-39
2021/08/22 01:04:18;;;;;;;5.43;1.80;;;;;;;;;;5064118;28;20034;-39
2021/08/22 01:06:53;;;;;;;;;;;;;;;;;;5071023;28;20491;-43
2021/08/22 01:09:38;;;;;;;3.50;1.63;;;;;;;;;;5045671;28;19915;-39
2021/08/22 01:12:08;;;;;;;4.07;2.13;;;;;;;;;;5053096;28;20090;-41
2021/08/22 01:14:39;;;;;;;3.83;1.70;;;;;;;;;;5066443;28;20048;-39
2021/08/22 01:17:05;;;;;;;3.53;1.73;;;;;;;;;;5082314;28;20086;-40
2021/08/22 01:20:04;;;;;;;4.85;2.03;;;;;;;;;;5074523;28;20016;-39
2021/08/22 01:22:32;;;;;;;3.65;1.70;;;;;;;;;;5083998;28;20024;-40
2021/08/22 01:25:00;;;;;;;4.32;1.85;;;;;;;;;;5086087;28;20032;-39
2021/08/22 01:27:26;;;;;;;4.78;1.73;;;;;;;;;;5078144;28;20017;-39
2021/08/22 01:29:58;;;;;;;4.45;1.95;;;;;;;;;;5072429;28;20034;-38
2021/08/22 01:32:24;;;;;;;4.53;2.40;;;;;;;;;;5058836;28;20036;-40
2021/08/22 01:34:49;;;;;;;5.13;2.22;;;;;;;;;;5059415;28;20064;-39
2021/08/22 01:37:17;;;;;;;6.10;1.63;;;;;;;;;;5066458;28;20082;-41
2021/08/22 01:39:43;;;;;;;4.38;1.90;;;;;;;;;;5069408;28;20036;-39
2021/08/22 01:42:09;;;;;;;5.32;1.95;;;;;;;;;;5064624;28;20021;-40
2021/08/22 01:44:38;;;;;;;4.63;2.25;;;;;;;;;;5057491;28;20479;-38
2021/08/22 01:47:05;;;;;;;4.32;2.05;;;;;;;;;;5049019;28;20029;-39
2021/08/22 01:49:31;;;;;;;7.03;2.97;;;;;;;;;;5048723;28;20379;-39
2021/08/22 01:51:56;;;;;;;4.78;2.00;;;;;;;;;;5048361;28;20112;-40
2021/08/22 01:54:22;;;;;;;5.25;2.42;;;;;;;;;;5052129;28;20024;-39
2021/08/22 01:56:48;;;;;;;5.70;2.58;;;;;;;;;;5067275;28;20552;-40
2021/08/22 01:59:13;;;;;;;4.57;2.30;;;;;;;;;;5057270;28;20063;-39
2021/08/22 02:01:38;;;;;;;6.60;2.40;;;;;;;;;;5058924;28;20120;-41
2021/08/22 02:04:14;;;;;;;5.15;1.60;;;;;;;;;;5066396;28;20380;-41
2021/08/22 02:06:49;;;;;;;4.05;2.00;;;;;;;;;;5067873;28;20020;-42
2021/08/22 02:09:18;;;;;;;3.85;1.98;;;;;;;;;;5068438;28;20066;-40
2021/08/22 02:11:48;;;;;;;4.45;2.03;;;;;;;;;;5067905;28;20036;-46
2021/08/22 02:14:15;;;;;;;5.45;2.47;;;;;;;;;;5068711;28;20099;-39
2021/08/22 02:16:47;;;;;;;5.45;2.05;;;;;;;;;;5081590;28;20059;-42
2021/08/22 02:19:13;;;;;;;5.38;2.53;;;;;;;;;;5087858;28;20521;-38
2021/08/22 02:21:39;;;;;;;4.28;2.10;;;;;;;;;;5076240;28;20029;-39
2021/08/22 02:24:05;;;;;;;5.43;2.35;;;;;;;;;;5060008;28;20036;-39
2021/08/22 02:26:30;;;;;;;4.93;2.22;;;;;;;;;;5061878;28;20034;-39
2021/08/22 02:28:57;;;;;;;4.30;2.25;;;;;;;;;;5061023;28;20032;-41
2021/08/22 02:31:23;;;;;;;5.00;2.13;;;;;;;;;;5060268;28;20028;-38
2021/08/22 02:33:48;;;;;;;3.65;2.13;;;;;;;;;;5061932;28;20533;-38
2021/08/22 02:36:14;;;;;;;5.78;2.70;;;;;;;;;;5048694;28;20060;-39
2021/08/22 02:38:40;;;;;;;5.45;2.20;;;;;;;;;;5065673;28;20603;-38
2021/08/22 02:41:05;;;;;;;4.43;2.15;;;;;;;;;;5085115;28;20118;-40
2021/08/22 02:43:30;;;;;;;5.90;2.17;;;;;;;;;;5087978;28;20027;-38
2021/08/22 02:45:56;;;;;;;5.28;2.30;;;;;;;;;;5076440;28;20422;-38
2021/08/22 02:48:22;;;;;;;5.40;2.72;;;;;;;;;;5067358;28;20441;-40
2021/08/22 02:50:47;;;;;;;5.82;2.20;;;;;;;;;;5067140;28;20487;-38
2021/08/22 02:53:12;;;;;;;5.78;2.38;;;;;;;;;;5067293;28;20028;-43
2021/08/22 02:55:38;;;;;;;6.40;2.50;;;;;;;;;;5066524;28;20505;-39
2021/08/22 02:58:03;;;;;;;4.20;2.10;;;;;;;;;;5066421;28;20027;-39
2021/08/22 03:00:28;;;;;;;4.93;2.00;;;;;;;;;;5067319;28;20058;-40
2021/08/22 03:02:54;;;;;;;4.22;2.40;;;;;;;;;;5064338;28;20044;-40
2021/08/22 03:05:19;;;;;;;3.88;2.05;;;;;;;;;;5066705;28;20028;-39
2021/08/22 03:07:44;;;;;;;4.30;2.25;;;;;;;;;;5067292;28;20012;-41
2021/08/22 03:10:11;;;;;;;3.70;1.85;;;;;;;;;;5067400;28;20032;-39
2021/08/22 03:12:36;;;;;;;5.35;2.03;;;;;;;;;;5066845;28;20100;-40
2021/08/22 03:15:05;;;;;;;4.43;2.20;;;;;;;;;;5067680;28;20107;-41
2021/08/22 03:17:31;;;;;;;4.72;2.30;;;;;;;;;;5083562;28;20024;-40
2021/08/22 03:19:56;;;;;;;4.45;2.08;;;;;;;;;;5087716;28;20485;-43
2021/08/22 03:22:23;;;;;;;3.65;1.83;;;;;;;;;;5087345;28;20692;-43
2021/08/22 03:24:49;;;;;;;4.70;1.95;;;;;;;;;;5067803;28;20400;-44
2021/08/22 03:27:14;;;;;;;3.97;1.83;;;;;;;;;;5062653;28;20058;-39
2021/08/22 03:29:40;;;;;;;4.47;2.15;;;;;;;;;;5066986;28;20037;-39
2021/08/22 03:32:05;;;;;;;4.35;2.03;;;;;;;;;;5066413;28;20111;-38
2021/08/22 03:34:31;;;;;;;4.30;2.03;;;;;;;;;;5066667;28;20025;-38
2021/08/22 03:36:56;;;;;;;3.97;1.75;;;;;;;;;;5066500;28;20029;-39
2021/08/22 03:39:21;;;;;;;3.78;1.95;;;;;;;;;;5066728;28;20411;-39
2021/08/22 03:41:47;;;;;;;4.25;1.90;;;;;;;;;;5066241;28;20626;-40
2021/08/22 03:44:12;;;;;;;4.63;1.92;;;;;;;;;;5066527;28;20615;-39
2021/08/22 03:46:37;;;;;;;3.85;1.90;;;;;;;;;;5066532;28;20070;-40
2021/08/22 03:49:03;;;;;;;4.65;2.05;;;;;;;;;;5066412;28;20077;-39
2021/08/22 03:51:28;;;;;;;3.88;1.80;;;;;;;;;;5065480;28;20035;-40
2021/08/22 03:53:53;;;;;;;4.32;1.98;;;;;;;;;;5065549;28;20031;-40
2021/08/22 03:56:19;;;;;;;4.57;1.92;;;;;;;;;;5066523;28;20440;-41
2021/08/22 03:58:44;;;;;;;4.88;2.05;;;;;;;;;;5047200;28;20021;-39
2021/08/22 04:01:10;;;;;;;3.20;1.65;;;;;;;;;;5055271;28;20028;-39
2021/08/22 04:03:39;;;;;;;5.70;1.73;;;;;;;;;;5066227;28;20031;-40
2021/08/22 04:06:05;;;;;;;4.47;2.30;;;;;;;;;;5066201;28;20021;-39
2021/08/22 04:08:31;;;;;;;3.53;1.63;;;;;;;;;;5066444;28;20572;-40
2021/08/22 04:10:57;;;;;;;4.20;1.92;;;;;;;;;;5065878;28;20079;-39
2021/08/22 04:13:23;;;;;;;5.00;2.15;;;;;;;;;;5065189;28;20044;-39
2021/08/22 04:15:49;;;;;;;6.60;2.05;;;;;;;;;;5069016;28;20113;-38
2021/08/22 04:18:16;;;;;;;4.25;2.08;;;;;;;;;;5067777;28;20052;-40
2021/08/22 04:20:41;;;;;;;4.22;1.80;;;;;;;;;;5065229;28;20031;-39
2021/08/22 04:23:07;;;;;;;11.90;2.25;;;;;;;;;;5066379;28;20016;-39
2021/08/22 04:25:32;;;;;;;5.55;2.08;;;;;;;;;;5066072;28;20032;-38
2021/08/22 04:27:58;;;;;;;4.45;1.90;;;;;;;;;;5065851;28;20025;-41
2021/08/22 04:30:24;;;;;;;3.55;1.70;;;;;;;;;;5061221;28;20526;-40
2021/08/22 04:32:49;;;;;;;4.68;1.83;;;;;;;;;;5057621;28;20025;-41
2021/08/22 04:35:14;;;;;;;4.78;2.10;;;;;;;;;;5063742;28;20748;-38
2021/08/22 04:37:41;;;;;;;4.72;2.20;;;;;;;;;;5063639;28;20447;-41
2021/08/22 04:40:07;;;;;;;4.47;2.00;;;;;;;;;;5064326;28;20576;-39
2021/08/22 04:42:33;;;;;;;4.18;1.80;;;;;;;;;;5063423;28;20024;-39
2021/08/22 04:44:59;;;;;;;4.97;1.83;;;;;;;;;;5062038;28;20030;-40
2021/08/22 04:47:25;;;;;;;3.50;1.80;;;;;;;;;;5058649;28;20094;-38
2021/08/22 04:49:50;;;;;;;4.72;2.13;;;;;;;;;;5057452;28;20029;-38
2021/08/22 04:52:16;;;;;;;5.68;1.83;;;;;;;;;;5060133;28;21602;-38
2021/08/22 04:54:41;;;;;;;4.93;1.77;;;;;;;;;;5054547;28;20025;-41
2021/08/22 04:57:07;;;;;;;3.53;1.88;;;;;;;;;;5063411;28;20120;-39
2021/08/22 04:59:32;;;;;;;3.83;1.80;;;;;;;;;;5063499;28;20029;-39
2021/08/22 05:01:57;;;;;;;5.55;2.10;;;;;;;;;;5065528;28;20051;-41
2021/08/22 05:04:23;;;;;;;4.22;1.85;;;;;;;;;;5065860;28;20042;-39
2021/08/22 05:06:48;;;;;;;4.15;1.80;;;;;;;;;;5065490;28;20024;-39
2021/08/22 05:09:13;;;;;;;4.53;1.77;;;;;;;;;;5065856;28;20095;-40
2021/08/22 05:11:39;;;;;;;3.92;1.80;;;;;;;;;;5064041;28;20032;-41
2021/08/22 05:14:04;;;;;;;3.47;1.60;;;;;;;;;;5056095;28;20033;-39
2021/08/22 05:16:29;;;;;;;4.15;1.73;;;;;;;;;;5069841;28;20061;-39
2021/08/22 05:18:55;;;;;;;4.28;1.60;;;;;;;;;;5066755;28;20162;-39
2021/08/22 05:21:20;;;;;;;3.28;1.70;;;;;;;;;;5067121;28;20028;-39
2021/08/22 05:23:45;;;;;;;3.13;1.60;;;;;;;;;;5066709;28;20056;-39
2021/08/22 05:26:11;;;;;;;4.30;1.50;;;;;;;;;;5067062;28;20028;-39
2021/08/22 05:28:36;;;;;;;5.13;1.85;;;;;;;;;;5058094;28;20135;-39
2021/08/22 05:31:01;;;;;;;6.57;2.13;;;;;;;;;;5064734;28;20032;-39
2021/08/22 05:33:27;;;;;;;3.50;1.60;;;;;;;;;;5062920;28;20099;-41
2021/08/22 05:35:52;;;;;;;4.43;1.80;;;;;;;;;;5065150;28;20037;-41
2021/08/22 05:38:17;;;;;;;4.55;1.90;;;;;;;;;;5051562;28;20554;-40
2021/08/22 05:40:43;;;;;;;5.28;1.80;;;;;;;;;;5058508;28;20500;-40
2021/08/22 05:43:08;;;;;;;3.25;1.48;;;;;;;;;;5064319;28;20035;-44
2021/08/22 05:45:33;;;;;;;4.25;2.03;;;;;;;;;;5063184;28;20016;-39
2021/08/22 05:47:59;;;;;;;2.75;1.60;;;;;;;;;;5064196;28;20032;-42
2021/08/22 05:50:25;;;;;;;3.85;1.80;;;;;;;;;;5051514;28;20502;-42
2021/08/22 05:52:50;;;;;;;4.90;1.80;;;;;;;;;;5061761;28;20035;-43
2021/08/22 05:55:16;;;;;;;4.13;1.90;;;;;;;;;;5065008;28;20029;-39
2021/08/22 05:57:42;;;;;;;3.72;1.70;;;;;;;;;;5059772;28;20020;-40
2021/08/22 06:00:08;;;;;;;7.10;2.15;;;;;;;;;;5064092;28;20067;-39
2021/08/22 06:02:37;;;;;;;3.42;1.80;;;;;;;;;;5059113;28;20021;-39
2021/08/22 06:05:06;;;;;;;5.22;2.05;;;;;;;;;;5049719;28;20041;-39
2021/08/22 06:07:32;;;;;;;4.25;1.98;;;;;;;;;;5058264;28;20035;-40
2021/08/22 06:09:58;;;;;;;4.32;2.08;;;;;;;;;;5060091;28;20032;-41
2021/08/22 06:12:24;;;;;;;3.78;2.00;;;;;;;;;;5064173;28;20040;-42
2021/08/22 06:14:49;;;;;;;4.00;1.80;;;;;;;;;;5062318;28;20032;-40
2021/08/22 06:17:14;;;;;;;3.40;1.77;;;;;;;;;;5059911;28;20074;-39
2021/08/22 06:19:40;;;;;;;4.63;1.95;;;;;;;;;;5055504;28;20480;-41
2021/08/22 06:22:05;;;;;;;4.68;1.80;;;;;;;;;;5065154;28;20446;-39
2021/08/22 06:24:32;;;;;;;4.28;1.70;;;;;;;;;;5066459;28;20034;-38
2021/08/22 06:26:58;;;;;;;4.75;2.53;;;;;;;;;;5061555;28;20058;-40
2021/08/22 06:29:23;;;;;;;4.53;2.00;;;;;;;;;;5065037;28;20113;-40
2021/08/22 06:31:49;;;;;;;3.85;2.00;;;;;;;;;;5065670;28;20036;-41
2021/08/22 06:34:14;;;;;;;4.57;2.30;;;;;;;;;;5059500;28;20024;-41
2021/08/22 06:36:39;;;;;;;5.28;2.42;;;;;;;;;;5058394;28;20025;-39
2021/08/22 06:39:09;;;;;;;4.15;2.35;;;;;;;;;;5052170;28;20040;-39
2021/08/22 06:41:34;;;;;;;4.88;2.58;;;;;;;;;;5060055;28;20029;-40
2021/08/22 06:44:00;;;;;;;4.70;2.35;;;;;;;;;;5048713;28;20070;-40
2021/08/22 06:46:25;;;;;;;8.00;2.55;;;;;;;;;;5048113;28;20515;-39
2021/08/22 06:48:51;;;;;;;4.30;2.45;;;;;;;;;;5047923;28;20035;-40
2021/08/22 06:51:16;;;;;;;4.50;2.42;;;;;;;;;;5047382;28;20550;-39
2021/08/22 06:53:42;;;;;;;6.35;2.28;;;;;;;;;;5047187;28;20025;-41
2021/08/22 06:56:07;;;;;;;4.88;2.38;;;;;;;;;;5055685;28;20036;-39
2021/08/22 06:58:33;;;;;;;4.78;2.53;;;;;;;;;;5059509;28;20099;-41
2021/08/22 07:00:58;;;;;;;4.65;2.60;;;;;;;;;;5055522;28;20016;-39
2021/08/22 07:03:23;;;;;;;4.88;2.03;;;;;;;;;;5052753;28;20036;-40
2021/08/22 07:05:49;;;;;;;5.40;2.40;;;;;;;;;;5047395;28;20025;-40
2021/08/22 07:08:15;;;;;;;6.03;2.60;;;;;;;;;;5048037;28;20461;-41
2021/08/22 07:10:40;;;;;;;6.80;2.30;;;;;;;;;;5057277;28;20552;-41
2021/08/22 07:13:06;;;;;;;4.85;2.75;;;;;;;;;;5052434;28;20824;-39
2021/08/22 07:15:33;;;;;;;9.93;2.78;;;;;;;;;;5065143;28;20703;-39
2021/08/22 07:17:58;;;;;;;4.03;2.20;;;;;;;;;;5064125;28;20066;-39
2021/08/22 07:20:24;;;;;;;5.55;2.80;;;;;;;;;;5059004;28;20699;-73
2021/08/22 07:22:49;;;;;;;7.40;3.28;;;;;;;;;;5053492;28;20028;-74
2021/08/22 07:25:14;;;;;;;5.43;3.10;;;;;;;;;;5062578;28;20028;-73
2021/08/22 07:27:40;;;;;;;5.95;3.13;;;;;;;;;;5064328;28;20028;-73
2021/08/22 07:30:06;;;;;;;5.55;3.30;;;;;;;;;;5061046;28;20028;-73
2021/08/22 07:32:31;;;;;;;5.38;3.47;;;;;;;;;;5059319;28;20039;-73
2021/08/22 07:34:56;;;;;;;5.18;3.03;;;;;;;;;;5040890;28;20028;-73
2021/08/22 07:37:22;;;;;;;5.15;3.03;;;;;;;;;;5057941;28;20068;-73
2021/08/22 07:39:47;;;;;;;5.45;3.10;;;;;;;;;;5065453;28;20016;-74
2021/08/22 07:43:32;;;;;;;4.40;2.67;;;;;;;;;;5059031;28;20884;-73
2021/08/22 07:45:57;;;;;;;5.22;3.00;;;;;;;;;;5046651;28;20040;-73
2021/08/22 07:48:23;;;;;;;12.90;8.57;;;;;;;;;;5042549;28;20021;-74
2021/08/22 07:50:48;;;;;;;5.20;3.28;;;;;;;;;;5042531;28;20695;-73
2021/08/22 07:53:16;;;;;;;6.20;3.15;;;;;;;;;;5041021;28;20032;-73
2021/08/22 07:55:42;;;;;;;5.80;3.25;;;;;;;;;;5032910;28;20507;-73
2021/08/22 07:58:07;;;;;;;4.63;2.85;;;;;;;;;;5032152;28;20037;-73
2021/08/22 08:00:32;;;;;;;6.85;3.53;;;;;;;;;;5045408;28;20025;-74
2021/08/22 08:02:58;;;;;;;8.55;2.90;;;;;;;;;;5041263;28;20055;-73
2021/08/22 08:05:23;;;;;;;4.78;3.00;;;;;;;;;;5040973;28;20032;-74
2021/08/22 08:07:48;;;;;;;4.75;2.58;;;;;;;;;;5039838;28;20029;-73
2021/08/22 08:10:14;;;;;;;7.35;4.63;;;;;;;;;;5040479;28;20111;-73
2021/08/22 08:12:39;;;;;;;6.55;3.60;;;;;;;;;;5039737;28;20577;-73
2021/08/22 08:15:05;;;;;;;7.40;3.15;;;;;;;;;;5053507;28;20033;-73
2021/08/22 08:17:30;;;;;;;6.75;2.97;;;;;;;;;;5041136;28;20024;-72
2021/08/22 08:19:55;;;;;;;5.45;2.80;;;;;;;;;;5024109;28;20026;-73
2021/08/22 08:22:23;;;;;;;5.75;3.15;;;;;;;;;;5031878;28;20021;-72
2021/08/22 08:24:48;;;;;;;5.85;2.97;;;;;;;;;;5043609;28;20029;-72
2021/08/22 08:27:13;;;;;;;5.68;2.95;;;;;;;;;;5044550;28;20094;-73
2021/08/22 08:29:39;;;;;;;6.45;3.30;;;;;;;;;;5044275;28;20068;-72
2021/08/22 08:32:04;;;;;;;5.53;2.90;;;;;;;;;;5043651;28;20108;-72
2021/08/22 08:34:30;;;;;;;7.05;4.70;;;;;;;;;;5043726;28;20029;-72
2021/08/22 08:36:55;;;;;;;5.45;2.92;;;;;;;;;;5044620;28;20033;-72
2021/08/22 08:39:20;;;;;;;6.03;2.90;;;;;;;;;;5041759;28;20032;-73
2021/08/22 08:41:46;;;;;;;5.70;2.80;;;;;;;;;;5043528;28;20029;-72
2021/08/22 08:44:13;;;;;;;5.38;3.22;;;;;;;;;;5042160;28;20032;-73
2021/08/22 08:46:43;;;;;;;8.02;3.15;;;;;;;;;;5045201;28;20043;-72
2021/08/22 08:49:16;;;;;;;4.20;2.60;;;;;;;;;;5041647;28;20029;-72
2021/08/22 08:52:13;;;;;;;9.90;6.13;;;;;;;;;;5040465;28;20029;-72
2021/08/22 08:54:48;;;;;;;5.18;2.80;;;;;;;;;;5026345;28;20030;-72
2021/08/22 08:57:15;;;;;;;6.40;2.97;;;;;;;;;;5021125;28;20235;-72
2021/08/22 08:59:41;;;;;;;7.68;3.08;;;;;;;;;;5028176;28;20025;-73
2021/08/22 09:02:06;;;;;;;13.32;7.95;;;;;;;;;;5025536;28;20062;-73
2021/08/22 09:04:35;;;;;;;7.45;3.78;;;;;;;;;;5026035;28;20029;-72
2021/08/22 09:07:39;;;;;;;8.93;3.75;;;;;;;;;;5028101;28;20025;-73
2021/08/22 09:10:19;;;;;;;6.50;3.60;;;;;;;;;;5027781;28;20053;-73
2021/08/22 09:13:18;;;;;;;6.40;3.80;;;;;;;;;;5024951;28;20041;-73
2021/08/22 09:16:05;;;;;;;5.90;3.53;;;;;;;;;;5024159;28;20022;-74
2021/08/22 09:18:57;;;;;;;5.40;3.30;;;;;;;;;;5027665;28;20030;-73
2021/08/22 09:22:00;;;;;;;5.45;3.35;;;;;;;;;;5028852;28;20283;-73
2021/08/22 09:24:31;;;;;;;6.32;3.45;;;;;;;;;;5028613;28;20026;-73
2021/08/22 09:27:34;;;;;;;7.63;3.72;;;;;;;;;;5027958;28;20029;-73
2021/08/22 09:30:31;;;;;;;11.07;6.80;;;;;;;;;;5028692;28;20025;-74
2021/08/22 09:33:34;;;;;;;6.82;3.65;;;;;;;;;;5015119;28;20029;-73
2021/08/22 09:36:18;;;;;;;6.45;3.85;;;;;;;;;;5021575;28;20037;-74
2021/08/22 09:40:35;;;;;;;7.35;3.88;;;;;;;;;;5096285;27;20401;-72
2021/08/22 09:43:32;;;;;;;5.95;4.00;;;;;;;;;;5080759;28;20028;-72
2021/08/22 09:46:10;;;;;;;7.90;3.65;;;;;;;;;;5088742;28;20536;-72
2021/08/22 09:49:02;;;;;;;7.45;3.88;;;;;;;;;;5073277;28;20420;-72
2021/08/22 09:52:05;;;;;;;6.63;3.58;;;;;;;;;;5067734;28;20074;-72
2021/08/22 09:55:08;;;;;;;6.28;4.00;;;;;;;;;;5073490;28;20012;-72
2021/08/22 09:57:48;;;;;;;8.23;4.65;;;;;;;;;;5073286;28;20033;-72
2021/08/22 10:00:51;;;;;;;6.82;4.22;;;;;;;;;;5062343;28;20013;-72
2021/08/22 10:03:47;;;;;;;7.45;4.22;;;;;;;;;;5078213;28;20046;-72
2021/08/22 10:06:18;;;;;;;6.25;3.65;;;;;;;;;;5082402;28;20028;-72
2021/08/22 10:09:05;;;;;;;8.50;3.67;;;;;;;;;;5059137;28;20036;-72
2021/08/22 10:11:56;;;;;;;12.98;6.03;;;;;;;;;;5079921;28;20025;-72
2021/08/22 10:14:22;;;;;;;;;;;;;;;;;;5073749;28;20686;-72
2021/08/22 10:16:49;;;;;;;31.33;20.60;;;;;;;;;;5077237;28;19914;-72
2021/08/22 10:19:15;;;;;;;8.52;5.40;;;;;;;;;;5069512;28;20081;-72
2021/08/22 10:21:41;;;;;;;7.25;4.72;;;;;;;;;;5083745;28;20028;-72
2021/08/22 10:24:10;;;;;;;8.30;4.63;;;;;;;;;;5070221;28;20069;-73
2021/08/22 10:26:58;;;;;;;7.00;4.88;;;;;;;;;;5059325;28;20106;-73
2021/08/22 10:29:28;;;;;;;7.25;4.28;;;;;;;;;;5070743;28;20025;-73
2021/08/22 10:31:56;;;;;;;8.50;5.18;;;;;;;;;;5075698;28;20099;-73
2021/08/22 10:34:25;;;;;;;7.93;4.80;;;;;;;;;;5075908;28;20531;-73
2021/08/22 10:36:52;;;;;;;7.18;4.15;;;;;;;;;;5067868;28;20048;-73
2021/08/22 10:39:26;;;;;;;9.13;5.25;;;;;;;;;;5073271;28;20017;-73
2021/08/22 10:41:52;;;;;;;6.63;3.30;;;;;;;;;;5067358;28;20033;-72
2021/08/22 10:44:33;;;;;;;13.88;9.95;;;;;;;;;;5081914;28;20119;-73
2021/08/22 10:47:02;;;;;;;7.83;3.03;;;;;;;;;;5084783;28;20112;-73
2021/08/22 10:49:49;;;;;;;10.13;3.65;;;;;;;;;;5073620;28;20670;-72
2021/08/22 10:52:20;;;;;;;4.22;1.77;;;;;;;;;;5069510;28;20024;-72
2021/08/22 10:55:05;;;;;;;2.27;1.20;;;;;;;;;;5053192;28;20031;-72
2021/08/22 10:57:49;;;;;;;2.38;1.20;;;;;;;;;;5057322;28;20265;-72
2021/08/22 11:00:36;;;;;;;3.05;1.10;;;;;;;;;;5058613;28;20028;-72
2021/08/22 11:03:06;;;;;;;3.20;1.05;;;;;;;;;;5059498;28;20032;-73
2021/08/22 11:05:36;;;;;;;5.95;2.05;;;;;;;;;;5067935;28;20031;-72
2021/08/22 11:08:20;;;;;;;2.72;1.13;;;;;;;;;;5053489;28;20024;-72
2021/08/22 11:11:05;;;;;;;6.47;2.50;;;;;;;;;;5063080;28;20024;-73
2021/08/22 11:13:33;;;;;;;4.47;1.73;;;;;;;;;;5061556;28;20035;-72
2021/08/22 11:16:02;;;;;;;21.25;11.40;;;;;;;;;;5057786;28;20029;-72
2021/08/22 11:18:28;;;;;;;5.82;2.35;;;;;;;;;;5073152;28;20031;-72
2021/08/22 11:20:53;;;;;;;4.97;1.80;;;;;;;;;;5063185;28;20033;-72
2021/08/22 11:23:18;;;;;;;3.13;1.50;;;;;;;;;;5060947;28;20032;-72
2021/08/22 11:25:58;;;;;;;2.92;1.30;;;;;;;;;;5057054;28;20107;-72
2021/08/22 11:28:23;;;;;;;4.93;2.40;;;;;;;;;;5045335;28;20031;-72
2021/08/22 11:30:49;;;;;;;4.25;2.00;;;;;;;;;;5058445;28;20067;-72
2021/08/22 11:33:15;;;;;;;5.93;2.35;;;;;;;;;;5069942;28;20032;-72
2021/08/22 11:35:46;;;;;;;3.30;1.67;;;;;;;;;;5065268;28;20029;-72
2021/08/22 11:38:13;;;;;;;4.70;2.05;;;;;;;;;;5051631;28;20035;-72
2021/08/22 11:40:39;;;;;;;11.40;4.35;;;;;;;;;;5048468;28;20048;-72
2021/08/22 11:43:10;;;;;;;3.92;1.90;;;;;;;;;;5047840;28;20742;-72
2021/08/22 11:45:45;;;;;;;4.22;2.33;;;;;;;;;;5053870;28;20190;-72
2021/08/22 11:48:16;;;;;;;4.05;1.80;;;;;;;;;;5049262;28;20040;-72
2021/08/22 11:50:41;;;;;;;4.07;1.63;;;;;;;;;;5052180;28;20495;-72
2021/08/22 11:53:08;;;;;;;3.17;1.67;;;;;;;;;;5057875;28;20021;-72
2021/08/22 11:55:36;;;;;;;3.40;1.50;;;;;;;;;;5066156;28;20403;-72
2021/08/22 11:58:10;;;;;;;3.13;1.08;;;;;;;;;;5062864;28;20735;-72
2021/08/22 12:00:38;;;;;;;4.35;1.35;;;;;;;;;;5053815;28;20035;-72
2021/08/22 12:03:03;;;;;;;2.45;1.20;;;;;;;;;;5062446;28;20043;-72
2021/08/22 12:05:30;;;;;;;2.50;1.17;;;;;;;;;;5064732;28;20032;-72
2021/08/22 12:08:10;;;;;;;3.00;1.00;;;;;;;;;;5064762;28;20504;-72
2021/08/22 12:10:40;;;;;;;2.47;1.15;;;;;;;;;;5064542;28;20035;-72
2021/08/22 12:13:20;;;;;;;3.55;1.25;;;;;;;;;;5064411;28;20028;-72
2021/08/22 12:15:47;;;;;;;4.10;1.50;;;;;;;;;;5063770;28;20052;-72
2021/08/22 12:18:26;;;;;;;7.65;2.35;;;;;;;;;;5051265;28;20121;-73
2021/08/22 12:21:03;;;;;;;3.88;1.55;;;;;;;;;;5046885;28;20043;-73
2021/08/22 12:23:31;;;;;;;3.83;1.60;;;;;;;;;;5064207;28;20031;-73
2021/08/22 12:26:19;;;;;;;2.63;1.23;;;;;;;;;;5060914;28;20190;-73
2021/08/22 12:28:45;;;;;;;2.72;1.33;;;;;;;;;;5064532;28;20100;-73
2021/08/22 12:31:13;;;;;;;3.22;1.58;;;;;;;;;;5062779;28;20156;-73
2021/08/22 12:33:46;;;;;;;3.70;1.80;;;;;;;;;;5064206;28;20052;-73
2021/08/22 12:36:20;;;;;;;4.53;2.00;;;;;;;;;;5063973;28;20047;-73
2021/08/22 12:38:57;;;;;;;3.53;1.70;;;;;;;;;;5050792;28;20048;-73
2021/08/22 12:41:27;;;;;;;3.85;1.83;;;;;;;;;;5062509;28;20129;-73
2021/08/22 12:43:55;;;;;;;8.60;5.10;;;;;;;;;;5053249;28;20077;-73
2021/08/22 12:46:25;;;;;;;5.72;3.28;;;;;;;;;;5056357;28;20055;-73
2021/08/22 12:48:51;;;;;;;14.02;7.80;;;;;;;;;;5042853;28;20028;-73
2021/08/22 12:51:18;;;;;;;15.52;9.43;;;;;;;;;;5051175;28;20039;-73
2021/08/22 12:53:44;;;;;;;4.15;1.90;;;;;;;;;;5065425;28;20021;-73
2021/08/22 12:56:09;;;;;;;5.82;2.53;;;;;;;;;;5065568;28;20036;-73
2021/08/22 12:58:34;;;;;;;4.70;2.40;;;;;;;;;;5062987;28;20023;-73
2021/08/22 13:01:00;;;;;;;5.28;3.15;;;;;;;;;;5061631;28;20114;-73
2021/08/22 13:03:25;;;;;;;4.40;2.60;;;;;;;;;;5063529;28;20040;-73
2021/08/22 13:05:50;;;;;;;4.85;2.60;;;;;;;;;;5063290;28;20021;-73
2021/08/22 13:08:16;;;;;;;4.40;2.65;;;;;;;;;;5063523;28;20404;-73
2021/08/22 13:10:41;;;;;;;4.28;2.35;;;;;;;;;;5063191;28;20029;-73
2021/08/22 13:13:07;;;;;;;5.05;2.70;;;;;;;;;;5063087;28;20044;-73
2021/08/22 13:15:33;;;;;;;5.18;2.63;;;;;;;;;;5062394;28;20064;-73
2021/08/22 13:17:58;;;;;;;5.55;3.03;;;;;;;;;;5066190;28;20036;-73
2021/08/22 13:20:23;;;;;;;5.25;3.15;;;;;;;;;;5063351;28;20107;-73
2021/08/22 13:22:49;;;;;;;11.60;6.53;;;;;;;;;;5062889;28;20545;-74
2021/08/22 13:25:14;;;;;;;20.52;11.98;;;;;;;;;;5062584;28;20032;-73
2021/08/22 13:27:40;;;;;;;4.85;2.78;;;;;;;;;;5063277;28;20017;-73
2021/08/22 13:30:06;;;;;;;4.47;2.40;;;;;;;;;;5061333;28;20021;-74
2021/08/22 13:32:31;;;;;;;5.43;2.72;;;;;;;;;;5062289;28;20032;-73
2021/08/22 13:34:56;;;;;;;5.78;2.33;;;;;;;;;;5061151;28;20029;-73
2021/08/22 13:37:22;;;;;;;4.53;2.17;;;;;;;;;;5063338;28;20071;-73
2021/08/22 13:39:47;;;;;;;4.95;2.80;;;;;;;;;;5061969;28;20036;-73
2021/08/22 13:42:13;;;;;;;5.15;2.50;;;;;;;;;;5062502;28;20029;-74
2021/08/22 13:44:38;;;;;;;4.13;2.80;;;;;;;;;;5062273;28;20024;-74
2021/08/22 13:47:03;;;;;;;7.07;2.33;;;;;;;;;;5061842;28;20028;-74
2021/08/22 13:49:29;;;;;;;5.50;2.10;;;;;;;;;;5061353;28;20272;-74
2021/08/22 13:51:55;;;;;;;4.60;2.50;;;;;;;;;;5060557;28;20112;-74
2021/08/22 13:54:20;;;;;;;4.35;2.20;;;;;;;;;;5060681;28;20082;-74
2021/08/22 13:56:45;;;;;;;5.40;2.67;;;;;;;;;;5061474;28;20151;-74
2021/08/22 13:59:11;;;;;;;28.83;15.20;;;;;;;;;;5062060;28;20678;-74
2021/08/22 14:01:38;;;;;;;8.10;4.35;;;;;;;;;;5061822;28;20047;-74
2021/08/22 14:04:04;;;;;;;4.95;2.13;;;;;;;;;;5060790;28;20033;-74
2021/08/22 14:06:30;;;;;;;4.50;2.05;;;;;;;;;;5043479;28;20484;-74
2021/08/22 14:08:55;;;;;;;3.42;1.77;;;;;;;;;;5043950;28;20025;-74
2021/08/22 14:11:21;;;;;;;4.38;1.90;;;;;;;;;;5044521;28;20051;-74
2021/08/22 14:13:46;;;;;;;3.13;1.80;;;;;;;;;;5044908;28;20025;-73
2021/08/22 14:16:11;;;;;;;4.32;2.38;;;;;;;;;;5060309;28;20052;-74
2021/08/22 14:18:37;;;;;;;3.78;1.90;;;;;;;;;;5084911;28;20393;-74
2021/08/22 14:21:02;;;;;;;3.40;1.85;;;;;;;;;;5084867;28;20081;-74
2021/08/22 14:23:28;;;;;;;8.27;4.40;;;;;;;;;;5075616;28;20028;-74
2021/08/22 14:25:53;;;;;;;10.85;7.38;;;;;;;;;;5066810;28;20078;-74
2021/08/22 14:28:19;;;;;;;5.53;2.75;;;;;;;;;;5067628;28;20115;-74
2021/08/22 14:30:44;;;;;;;5.68;3.22;;;;;;;;;;5066884;28;20023;-74
2021/08/22 14:33:09;;;;;;;5.25;2.90;;;;;;;;;;5074375;28;20453;-74
2021/08/22 14:35:35;;;;;;;3.33;1.90;;;;;;;;;;5087804;28;20097;-74
2021/08/22 14:38:00;;;;;;;4.82;2.40;;;;;;;;;;5068321;28;20031;-74
2021/08/22 14:40:26;;;;;;;4.40;2.35;;;;;;;;;;5067910;28;20036;-74
2021/08/22 14:42:51;;;;;;;5.13;2.35;;;;;;;;;;5067909;28;20033;-74
2021/08/22 14:45:17;;;;;;;4.00;2.03;;;;;;;;;;5067489;28;20024;-74
2021/08/22 14:47:51;;;;;;;4.32;1.80;;;;;;;;;;5068021;28;20074;-74
2021/08/22 14:50:18;;;;;;;3.40;1.70;;;;;;;;;;5067886;28;20245;-74
2021/08/22 14:52:44;;;;;;;3.70;1.70;;;;;;;;;;5075640;28;20103;-74
2021/08/22 14:55:09;;;;;;;3.80;2.00;;;;;;;;;;5066670;28;20135;-74